createdAt,value
2019-04-20T00:00:56.449Z,95304.78
2019-04-20T00:15:56.052Z,95311.56
2019-04-20T00:45:53.765Z,95329.92
2019-04-20T01:01:13.056Z,95318.14
2019-04-20T01:16:03.338Z,95318.12
2019-04-20T01:46:00.284Z,95305.01
2019-04-20T02:15:56.413Z,95290.84
2019-04-20T02:47:07.574Z,95270.14
2019-04-20T03:16:36.039Z,95272.78
2019-04-20T03:45:58.001Z,95292.70
2019-04-20T04:01:22.656Z,95291.91
2019-04-20T04:15:58.658Z,95312.63
2019-04-20T04:45:51.409Z,95328.86
2019-04-20T05:00:51.478Z,95335.28
2019-04-20T05:16:03.519Z,95330.34
2019-04-20T05:30:58.191Z,95342.22
2019-04-20T05:46:18.572Z,95370.50
2019-04-20T06:01:19.276Z,95370.81
2019-04-20T06:31:18.927Z,95388.77
2019-04-20T06:46:15.183Z,95388.66
2019-04-20T07:01:10.911Z,95406.13
2019-04-20T07:31:20.502Z,95436.63
2019-04-20T07:46:25.839Z,95439.83
2019-04-20T08:01:24.213Z,95438.06
2019-04-20T08:16:20.320Z,95449.58
2019-04-20T09:01:01.545Z,95435.34
2019-04-20T09:15:51.326Z,95456.81
2019-04-20T09:31:15.542Z,95456.19
2019-04-20T10:15:57.705Z,95458.12
2019-04-20T10:30:54.452Z,95468.05
2019-04-20T10:45:53.018Z,95461.23
2019-04-20T11:00:57.663Z,95469.38
2019-04-20T11:15:52.664Z,95478.88
2019-04-20T11:30:50.548Z,95497.79
2019-04-20T11:45:54.437Z,95484.92
2019-04-20T12:01:04.078Z,95493.12
2019-04-20T12:15:54.066Z,95496.40
2019-04-20T12:30:58.643Z,95480.33
2019-04-20T12:45:53.825Z,95484.20
2019-04-20T13:00:52.342Z,95483.09
2019-04-20T13:30:53.692Z,95480.53
2019-04-20T13:45:53.140Z,95485.19
2019-04-20T14:15:53.420Z,95478.38
2019-04-20T14:30:51.955Z,95469.06
2019-04-20T14:45:50.544Z,95466.83
2019-04-20T15:15:50.776Z,95476.28
2019-04-20T15:30:50.157Z,95480.00
2019-04-20T15:45:51.610Z,95479.03
2019-04-20T16:00:54.710Z,95472.52
2019-04-20T16:15:53.933Z,95477.58
2019-04-20T16:30:51.696Z,95473.66
2019-04-20T16:45:51.032Z,95476.26
2019-04-20T17:00:51.813Z,95474.98
2019-04-20T17:15:51.959Z,95481.56
2019-04-20T17:30:54.691Z,95491.47
2019-04-20T17:46:02.820Z,95509.77
2019-04-20T18:16:14.224Z,95535.97
2019-04-20T18:46:10.962Z,95557.27
2019-04-20T19:00:51.827Z,95543.16
2019-04-20T19:16:13.325Z,95546.54
2019-04-20T19:31:06.802Z,95547.77
2019-04-20T19:46:39.398Z,95549.56
2019-04-20T20:00:55.771Z,95545.62
2019-04-20T20:15:57.428Z,95539.73
2019-04-20T20:31:08.615Z,95543.70
2019-04-20T20:46:05.012Z,95549.09
2019-04-20T21:00:57.604Z,95533.05
2019-04-20T21:16:02.934Z,95528.78
2019-04-20T21:31:10.537Z,95540.14
2019-04-20T21:45:59.320Z,95542.55
2019-04-20T22:01:09.532Z,95536.13
2019-04-20T22:15:58.512Z,95534.97
2019-04-20T22:30:50.710Z,95526.53
2019-04-20T22:45:53.858Z,95513.23
2019-04-20T23:00:56.129Z,95509.94
2019-04-20T23:15:56.463Z,95496.73
2019-04-20T23:31:00.094Z,95480.94
